sensor_id;sensor_type;location;lat;lon;timestamp;P1;durP1;ratioP1;P2;durP2;ratioP2
24008;SDS011;12217;50.792;4.372;2023-05-07T00:01:55;8.88;;;3.97;;
24008;SDS011;12217;50.792;4.372;2023-05-07T00:04:21;10.68;;;4.00;;
24008;SDS011;12217;50.792;4.372;2023-05-07T00:06:47;8.90;;;4.40;;
24008;SDS011;12217;50.792;4.372;2023-05-07T00:09:13;5.15;;;3.15;;
24008;SDS011;12217;50.792;4.372;2023-05-07T00:11:39;9.68;;;4.07;;
24008;SDS011;12217;50.792;4.372;2023-05-07T00:14:05;10.65;;;4.35;;
24008;SDS011;12217;50.792;4.372;2023-05-07T00:16:31;8.80;;;4.43;;
24008;SDS011;12217;50.792;4.372;2023-05-07T00:18:57;8.40;;;3.95;;
24008;SDS011;12217;50.792;4.372;2023-05-07T00:21:23;9.25;;;4.18;;
24008;SDS011;12217;50.792;4.372;2023-05-07T00:23:53;6.90;;;3.65;;
24008;SDS011;12217;50.792;4.372;2023-05-07T00:26:19;6.90;;;3.70;;
24008;SDS011;12217;50.792;4.372;2023-05-07T00:28:45;8.60;;;3.60;;
24008;SDS011;12217;50.792;4.372;2023-05-07T00:31:11;7.50;;;3.67;;
24008;SDS011;12217;50.792;4.372;2023-05-07T00:33:37;6.55;;;3.60;;
24008;SDS011;12217;50.792;4.372;2023-05-07T00:36:03;8.40;;;3.97;;
24008;SDS011;12217;50.792;4.372;2023-05-07T00:38:29;8.45;;;4.00;;
24008;SDS011;12217;50.792;4.372;2023-05-07T00:40:55;7.32;;;3.50;;
24008;SDS011;12217;50.792;4.372;2023-05-07T00:43:20;11.48;;;3.72;;
24008;SDS011;12217;50.792;4.372;2023-05-07T00:45:46;9.73;;;4.00;;
24008;SDS011;12217;50.792;4.372;2023-05-07T00:48:12;10.30;;;4.53;;
24008;SDS011;12217;50.792;4.372;2023-05-07T00:50:38;8.02;;;4.25;;
24008;SDS011;12217;50.792;4.372;2023-05-07T00:53:04;7.68;;;4.07;;
24008;SDS011;12217;50.792;4.372;2023-05-07T00:55:29;7.63;;;4.00;;
24008;SDS011;12217;50.792;4.372;2023-05-07T00:57:55;9.80;;;4.03;;
24008;SDS011;12217;50.792;4.372;2023-05-07T01:00:21;8.50;;;4.03;;
24008;SDS011;12217;50.792;4.372;2023-05-07T01:02:46;9.25;;;3.90;;
24008;SDS011;12217;50.792;4.372;2023-05-07T01:05:13;8.30;;;3.70;;
24008;SDS011;12217;50.792;4.372;2023-05-07T01:07:42;9.63;;;4.40;;
24008;SDS011;12217;50.792;4.372;2023-05-07T01:10:09;9.98;;;4.05;;
24008;SDS011;12217;50.792;4.372;2023-05-07T01:12:35;9.85;;;4.13;;
24008;SDS011;12217;50.792;4.372;2023-05-07T01:15:03;8.70;;;4.13;;
24008;SDS011;12217;50.792;4.372;2023-05-07T01:17:33;9.93;;;4.57;;
24008;SDS011;12217;50.792;4.372;2023-05-07T01:20:04;10.35;;;4.55;;
24008;SDS011;12217;50.792;4.372;2023-05-07T01:22:33;9.63;;;4.38;;
24008;SDS011;12217;50.792;4.372;2023-05-07T01:25:01;7.72;;;4.25;;
24008;SDS011;12217;50.792;4.372;2023-05-07T01:27:28;6.95;;;3.60;;
24008;SDS011;12217;50.792;4.372;2023-05-07T01:29:54;8.40;;;4.20;;
24008;SDS011;12217;50.792;4.372;2023-05-07T01:32:22;9.00;;;3.85;;
24008;SDS011;12217;50.792;4.372;2023-05-07T01:34:54;9.38;;;3.92;;
24008;SDS011;12217;50.792;4.372;2023-05-07T01:37:22;6.95;;;3.47;;
24008;SDS011;12217;50.792;4.372;2023-05-07T01:39:49;10.32;;;4.07;;
24008;SDS011;12217;50.792;4.372;2023-05-07T01:42:15;8.50;;;3.72;;
24008;SDS011;12217;50.792;4.372;2023-05-07T01:44:41;9.07;;;4.03;;
24008;SDS011;12217;50.792;4.372;2023-05-07T01:47:06;9.80;;;3.92;;
24008;SDS011;12217;50.792;4.372;2023-05-07T01:49:33;8.38;;;3.95;;
24008;SDS011;12217;50.792;4.372;2023-05-07T01:51:59;6.05;;;3.45;;
24008;SDS011;12217;50.792;4.372;2023-05-07T01:54:26;7.95;;;3.53;;
24008;SDS011;12217;50.792;4.372;2023-05-07T01:56:56;11.15;;;3.80;;
24008;SDS011;12217;50.792;4.372;2023-05-07T01:59:22;7.32;;;3.40;;
24008;SDS011;12217;50.792;4.372;2023-05-07T02:01:48;7.43;;;3.58;;
24008;SDS011;12217;50.792;4.372;2023-05-07T02:04:13;5.43;;;3.22;;
24008;SDS011;12217;50.792;4.372;2023-05-07T02:06:39;6.78;;;3.55;;
24008;SDS011;12217;50.792;4.372;2023-05-07T02:09:05;8.00;;;4.00;;
24008;SDS011;12217;50.792;4.372;2023-05-07T02:11:30;8.38;;;3.47;;
24008;SDS011;12217;50.792;4.372;2023-05-07T02:13:56;8.55;;;3.78;;
24008;SDS011;12217;50.792;4.372;2023-05-07T02:16:22;8.20;;;3.33;;
24008;SDS011;12217;50.792;4.372;2023-05-07T02:18:48;9.90;;;3.88;;
24008;SDS011;12217;50.792;4.372;2023-05-07T02:21:14;7.15;;;4.03;;
24008;SDS011;12217;50.792;4.372;2023-05-07T02:23:40;11.40;;;4.18;;
24008;SDS011;12217;50.792;4.372;2023-05-07T02:26:05;10.82;;;3.80;;
24008;SDS011;12217;50.792;4.372;2023-05-07T02:28:31;7.10;;;3.70;;
24008;SDS011;12217;50.792;4.372;2023-05-07T02:30:56;10.15;;;3.97;;
24008;SDS011;12217;50.792;4.372;2023-05-07T02:33:23;8.10;;;3.67;;
24008;SDS011;12217;50.792;4.372;2023-05-07T02:35:50;8.02;;;3.63;;
24008;SDS011;12217;50.792;4.372;2023-05-07T02:38:16;6.38;;;3.50;;
24008;SDS011;12217;50.792;4.372;2023-05-07T02:40:43;8.80;;;3.45;;
24008;SDS011;12217;50.792;4.372;2023-05-07T02:43:09;6.50;;;3.70;;
24008;SDS011;12217;50.792;4.372;2023-05-07T02:45:35;9.82;;;3.70;;
24008;SDS011;12217;50.792;4.372;2023-05-07T02:48:02;7.45;;;3.85;;
24008;SDS011;12217;50.792;4.372;2023-05-07T02:50:28;10.07;;;3.80;;
24008;SDS011;12217;50.792;4.372;2023-05-07T02:52:54;6.35;;;4.15;;
24008;SDS011;12217;50.792;4.372;2023-05-07T02:55:20;11.75;;;3.55;;
24008;SDS011;12217;50.792;4.372;2023-05-07T02:57:46;9.25;;;3.72;;
24008;SDS011;12217;50.792;4.372;2023-05-07T03:00:21;9.02;;;3.50;;
24008;SDS011;12217;50.792;4.372;2023-05-07T03:02:47;8.05;;;4.10;;
24008;SDS011;12217;50.792;4.372;2023-05-07T03:05:12;7.38;;;3.65;;
24008;SDS011;12217;50.792;4.372;2023-05-07T03:07:39;6.70;;;3.30;;
24008;SDS011;12217;50.792;4.372;2023-05-07T03:10:06;7.60;;;3.33;;
24008;SDS011;12217;50.792;4.372;2023-05-07T03:12:31;6.13;;;3.40;;
24008;SDS011;12217;50.792;4.372;2023-05-07T03:14:57;4.95;;;3.17;;
24008;SDS011;12217;50.792;4.372;2023-05-07T03:17:23;6.22;;;3.42;;
24008;SDS011;12217;50.792;4.372;2023-05-07T03:19:48;8.65;;;3.40;;
24008;SDS011;12217;50.792;4.372;2023-05-07T03:22:14;4.95;;;3.30;;
24008;SDS011;12217;50.792;4.372;2023-05-07T03:24:39;5.93;;;3.10;;
24008;SDS011;12217;50.792;4.372;2023-05-07T03:27:05;9.32;;;3.67;;
24008;SDS011;12217;50.792;4.372;2023-05-07T03:29:31;8.93;;;4.00;;
24008;SDS011;12217;50.792;4.372;2023-05-07T03:31:56;6.45;;;3.83;;
24008;SDS011;12217;50.792;4.372;2023-05-07T03:34:22;7.80;;;3.78;;
24008;SDS011;12217;50.792;4.372;2023-05-07T03:36:48;6.85;;;3.30;;
24008;SDS011;12217;50.792;4.372;2023-05-07T03:39:14;5.88;;;3.40;;
24008;SDS011;12217;50.792;4.372;2023-05-07T03:41:40;6.15;;;3.47;;
24008;SDS011;12217;50.792;4.372;2023-05-07T03:44:06;6.82;;;3.30;;
24008;SDS011;12217;50.792;4.372;2023-05-07T03:46:32;7.10;;;3.20;;
24008;SDS011;12217;50.792;4.372;2023-05-07T03:48:58;7.65;;;3.33;;
24008;SDS011;12217;50.792;4.372;2023-05-07T03:51:24;7.75;;;3.35;;
24008;SDS011;12217;50.792;4.372;2023-05-07T03:53:50;7.85;;;3.63;;
24008;SDS011;12217;50.792;4.372;2023-05-07T03:56:18;5.82;;;3.30;;
24008;SDS011;12217;50.792;4.372;2023-05-07T03:58:44;8.18;;;3.80;;
24008;SDS011;12217;50.792;4.372;2023-05-07T04:01:09;7.78;;;3.50;;
24008;SDS011;12217;50.792;4.372;2023-05-07T04:03:36;6.20;;;3.30;;
24008;SDS011;12217;50.792;4.372;2023-05-07T04:06:02;7.57;;;3.60;;
24008;SDS011;12217;50.792;4.372;2023-05-07T04:08:27;5.53;;;3.58;;
24008;SDS011;12217;50.792;4.372;2023-05-07T04:10:56;4.63;;;3.30;;
24008;SDS011;12217;50.792;4.372;2023-05-07T04:13:22;6.85;;;3.20;;
24008;SDS011;12217;50.792;4.372;2023-05-07T04:15:48;5.20;;;2.95;;
24008;SDS011;12217;50.792;4.372;2023-05-07T04:18:14;5.60;;;3.85;;
24008;SDS011;12217;50.792;4.372;2023-05-07T04:20:40;5.68;;;3.38;;
24008;SDS011;12217;50.792;4.372;2023-05-07T04:23:06;6.45;;;3.50;;
24008;SDS011;12217;50.792;4.372;2023-05-07T04:25:32;8.98;;;3.85;;
24008;SDS011;12217;50.792;4.372;2023-05-07T04:27:58;8.25;;;3.92;;
24008;SDS011;12217;50.792;4.372;2023-05-07T04:30:24;6.80;;;3.47;;
24008;SDS011;12217;50.792;4.372;2023-05-07T04:32:50;7.78;;;3.72;;
24008;SDS011;12217;50.792;4.372;2023-05-07T04:35:15;6.75;;;3.67;;
24008;SDS011;12217;50.792;4.372;2023-05-07T04:37:41;6.38;;;3.63;;
24008;SDS011;12217;50.792;4.372;2023-05-07T04:40:07;7.50;;;3.45;;
24008;SDS011;12217;50.792;4.372;2023-05-07T04:42:33;5.50;;;3.58;;
24008;SDS011;12217;50.792;4.372;2023-05-07T04:44:58;8.43;;;3.38;;
24008;SDS011;12217;50.792;4.372;2023-05-07T04:47:25;6.00;;;3.72;;
24008;SDS011;12217;50.792;4.372;2023-05-07T04:49:50;7.05;;;3.63;;
24008;SDS011;12217;50.792;4.372;2023-05-07T04:52:16;6.50;;;3.75;;
24008;SDS011;12217;50.792;4.372;2023-05-07T04:54:41;6.25;;;3.38;;
24008;SDS011;12217;50.792;4.372;2023-05-07T04:57:07;6.45;;;3.50;;
24008;SDS011;12217;50.792;4.372;2023-05-07T04:59:33;6.13;;;4.07;;
24008;SDS011;12217;50.792;4.372;2023-05-07T05:01:58;9.00;;;4.53;;
24008;SDS011;12217;50.792;4.372;2023-05-07T05:04:24;6.28;;;4.38;;
24008;SDS011;12217;50.792;4.372;2023-05-07T05:06:50;9.05;;;5.03;;
24008;SDS011;12217;50.792;4.372;2023-05-07T05:09:16;10.18;;;4.22;;
24008;SDS011;12217;50.792;4.372;2023-05-07T05:11:42;8.60;;;3.45;;
24008;SDS011;12217;50.792;4.372;2023-05-07T05:14:08;7.20;;;3.40;;
24008;SDS011;12217;50.792;4.372;2023-05-07T05:16:33;6.10;;;3.45;;
24008;SDS011;12217;50.792;4.372;2023-05-07T05:18:59;5.75;;;3.42;;
24008;SDS011;12217;50.792;4.372;2023-05-07T05:21:26;7.72;;;3.63;;
24008;SDS011;12217;50.792;4.372;2023-05-07T05:23:51;9.25;;;3.90;;
24008;SDS011;12217;50.792;4.372;2023-05-07T05:26:17;6.63;;;3.90;;
24008;SDS011;12217;50.792;4.372;2023-05-07T05:28:43;8.90;;;3.83;;
24008;SDS011;12217;50.792;4.372;2023-05-07T05:31:09;6.90;;;3.40;;
24008;SDS011;12217;50.792;4.372;2023-05-07T05:33:35;7.35;;;3.42;;
24008;SDS011;12217;50.792;4.372;2023-05-07T05:36:01;10.38;;;4.00;;
24008;SDS011;12217;50.792;4.372;2023-05-07T05:38:26;6.63;;;3.80;;
24008;SDS011;12217;50.792;4.372;2023-05-07T05:40:52;9.38;;;3.50;;
24008;SDS011;12217;50.792;4.372;2023-05-07T05:43:18;6.75;;;3.45;;
24008;SDS011;12217;50.792;4.372;2023-05-07T05:45:43;6.90;;;3.40;;
24008;SDS011;12217;50.792;4.372;2023-05-07T05:48:09;6.53;;;3.83;;
24008;SDS011;12217;50.792;4.372;2023-05-07T05:50:35;7.28;;;3.63;;
24008;SDS011;12217;50.792;4.372;2023-05-07T05:53:01;7.70;;;3.65;;
24008;SDS011;12217;50.792;4.372;2023-05-07T05:55:27;6.03;;;3.85;;
24008;SDS011;12217;50.792;4.372;2023-05-07T05:57:53;10.15;;;4.43;;
24008;SDS011;12217;50.792;4.372;2023-05-07T06:00:19;10.65;;;4.95;;
24008;SDS011;12217;50.792;4.372;2023-05-07T06:02:47;12.32;;;5.07;;
24008;SDS011;12217;50.792;4.372;2023-05-07T06:05:13;11.55;;;5.28;;
24008;SDS011;12217;50.792;4.372;2023-05-07T06:07:38;11.55;;;5.85;;
24008;SDS011;12217;50.792;4.372;2023-05-07T06:10:04;9.50;;;5.43;;
24008;SDS011;12217;50.792;4.372;2023-05-07T06:12:31;9.65;;;6.20;;
24008;SDS011;12217;50.792;4.372;2023-05-07T06:14:56;11.63;;;6.18;;
24008;SDS011;12217;50.792;4.372;2023-05-07T06:17:22;13.20;;;6.70;;
24008;SDS011;12217;50.792;4.372;2023-05-07T06:19:48;9.95;;;5.80;;
24008;SDS011;12217;50.792;4.372;2023-05-07T06:22:13;11.32;;;6.20;;
24008;SDS011;12217;50.792;4.372;2023-05-07T06:24:39;13.07;;;6.82;;
24008;SDS011;12217;50.792;4.372;2023-05-07T06:27:05;13.75;;;6.75;;
24008;SDS011;12217;50.792;4.372;2023-05-07T06:29:30;12.30;;;7.00;;
24008;SDS011;12217;50.792;4.372;2023-05-07T06:32:05;16.73;;;7.15;;
24008;SDS011;12217;50.792;4.372;2023-05-07T06:34:32;14.60;;;7.47;;
24008;SDS011;12217;50.792;4.372;2023-05-07T06:36:58;15.30;;;7.43;;
24008;SDS011;12217;50.792;4.372;2023-05-07T06:39:24;10.93;;;7.07;;
24008;SDS011;12217;50.792;4.372;2023-05-07T06:41:49;10.48;;;6.93;;
24008;SDS011;12217;50.792;4.372;2023-05-07T06:44:15;13.98;;;7.50;;
24008;SDS011;12217;50.792;4.372;2023-05-07T06:46:41;9.88;;;6.82;;
24008;SDS011;12217;50.792;4.372;2023-05-07T06:49:07;11.73;;;7.18;;
24008;SDS011;12217;50.792;4.372;2023-05-07T06:51:32;9.25;;;6.63;;
24008;SDS011;12217;50.792;4.372;2023-05-07T06:54:00;12.70;;;6.97;;
24008;SDS011;12217;50.792;4.372;2023-05-07T06:56:25;12.85;;;7.45;;
24008;SDS011;12217;50.792;4.372;2023-05-07T06:58:51;15.27;;;7.75;;
24008;SDS011;12217;50.792;4.372;2023-05-07T07:01:16;12.60;;;7.82;;
24008;SDS011;12217;50.792;4.372;2023-05-07T07:03:42;10.70;;;7.10;;
24008;SDS011;12217;50.792;4.372;2023-05-07T07:06:08;11.85;;;7.60;;
24008;SDS011;12217;50.792;4.372;2023-05-07T07:08:33;13.73;;;7.78;;
24008;SDS011;12217;50.792;4.372;2023-05-07T07:10:59;12.10;;;7.70;;
24008;SDS011;12217;50.792;4.372;2023-05-07T07:13:25;13.48;;;8.10;;
24008;SDS011;12217;50.792;4.372;2023-05-07T07:15:51;13.15;;;7.20;;
24008;SDS011;12217;50.792;4.372;2023-05-07T07:18:18;11.65;;;7.47;;
24008;SDS011;12217;50.792;4.372;2023-05-07T07:20:43;11.20;;;7.60;;
24008;SDS011;12217;50.792;4.372;2023-05-07T07:23:09;11.00;;;7.32;;
24008;SDS011;12217;50.792;4.372;2023-05-07T07:25:35;8.05;;;7.20;;
24008;SDS011;12217;50.792;4.372;2023-05-07T07:28:01;12.38;;;7.80;;
24008;SDS011;12217;50.792;4.372;2023-05-07T07:30:26;14.38;;;8.13;;
24008;SDS011;12217;50.792;4.372;2023-05-07T07:32:52;12.00;;;8.27;;
24008;SDS011;12217;50.792;4.372;2023-05-07T07:35:18;14.18;;;7.78;;
24008;SDS011;12217;50.792;4.372;2023-05-07T07:37:44;13.35;;;8.32;;
24008;SDS011;12217;50.792;4.372;2023-05-07T07:40:10;12.90;;;8.93;;
24008;SDS011;12217;50.792;4.372;2023-05-07T07:42:36;11.25;;;8.10;;
24008;SDS011;12217;50.792;4.372;2023-05-07T07:45:02;13.75;;;8.50;;
24008;SDS011;12217;50.792;4.372;2023-05-07T07:47:29;11.15;;;7.97;;
24008;SDS011;12217;50.792;4.372;2023-05-07T07:49:54;13.77;;;8.40;;
24008;SDS011;12217;50.792;4.372;2023-05-07T07:52:20;11.77;;;8.48;;
24008;SDS011;12217;50.792;4.372;2023-05-07T07:54:46;13.77;;;8.75;;
24008;SDS011;12217;50.792;4.372;2023-05-07T07:57:11;12.02;;;8.25;;
24008;SDS011;12217;50.792;4.372;2023-05-07T07:59:37;11.10;;;8.32;;
24008;SDS011;12217;50.792;4.372;2023-05-07T08:02:03;12.00;;;9.55;;
24008;SDS011;12217;50.792;4.372;2023-05-07T08:04:28;12.05;;;8.40;;
24008;SDS011;12217;50.792;4.372;2023-05-07T08:06:55;9.40;;;8.18;;
24008;SDS011;12217;50.792;4.372;2023-05-07T08:09:21;10.43;;;7.93;;
24008;SDS011;12217;50.792;4.372;2023-05-07T08:11:46;11.52;;;7.60;;
24008;SDS011;12217;50.792;4.372;2023-05-07T08:14:12;11.20;;;7.85;;
24008;SDS011;12217;50.792;4.372;2023-05-07T08:16:38;13.38;;;7.88;;
24008;SDS011;12217;50.792;4.372;2023-05-07T08:19:06;13.30;;;8.57;;
24008;SDS011;12217;50.792;4.372;2023-05-07T08:21:32;9.98;;;7.38;;
24008;SDS011;12217;50.792;4.372;2023-05-07T08:23:58;12.30;;;7.90;;
24008;SDS011;12217;50.792;4.372;2023-05-07T08:26:25;13.75;;;7.72;;
24008;SDS011;12217;50.792;4.372;2023-05-07T08:28:52;11.93;;;7.15;;
24008;SDS011;12217;50.792;4.372;2023-05-07T08:31:17;9.88;;;7.00;;
24008;SDS011;12217;50.792;4.372;2023-05-07T08:33:43;10.13;;;7.40;;
24008;SDS011;12217;50.792;4.372;2023-05-07T08:36:08;10.45;;;7.72;;
24008;SDS011;12217;50.792;4.372;2023-05-07T08:38:34;9.80;;;7.50;;
24008;SDS011;12217;50.792;4.372;2023-05-07T08:41:02;9.00;;;7.00;;
24008;SDS011;12217;50.792;4.372;2023-05-07T08:43:28;8.98;;;7.05;;
24008;SDS011;12217;50.792;4.372;2023-05-07T08:45:56;9.30;;;6.82;;
24008;SDS011;12217;50.792;4.372;2023-05-07T08:48:25;8.95;;;6.60;;
24008;SDS011;12217;50.792;4.372;2023-05-07T08:50:54;9.07;;;6.43;;
24008;SDS011;12217;50.792;4.372;2023-05-07T08:53:20;13.00;;;7.10;;
24008;SDS011;12217;50.792;4.372;2023-05-07T08:55:46;9.50;;;6.53;;
24008;SDS011;12217;50.792;4.372;2023-05-07T08:58:12;12.45;;;6.97;;
24008;SDS011;12217;50.792;4.372;2023-05-07T09:00:41;9.57;;;6.88;;
24008;SDS011;12217;50.792;4.372;2023-05-07T09:03:11;11.45;;;7.05;;
24008;SDS011;12217;50.792;4.372;2023-05-07T09:05:37;10.35;;;7.15;;
24008;SDS011;12217;50.792;4.372;2023-05-07T09:08:03;11.23;;;7.07;;
24008;SDS011;12217;50.792;4.372;2023-05-07T09:10:32;10.18;;;6.20;;
24008;SDS011;12217;50.792;4.372;2023-05-07T09:12:59;8.48;;;6.40;;
24008;SDS011;12217;50.792;4.372;2023-05-07T09:15:27;8.85;;;6.05;;
24008;SDS011;12217;50.792;4.372;2023-05-07T09:17:53;9.68;;;6.45;;
24008;SDS011;12217;50.792;4.372;2023-05-07T09:20:19;8.15;;;6.03;;
24008;SDS011;12217;50.792;4.372;2023-05-07T09:22:45;7.82;;;4.82;;
24008;SDS011;12217;50.792;4.372;2023-05-07T09:25:10;8.20;;;5.30;;
24008;SDS011;12217;50.792;4.372;2023-05-07T09:27:36;6.65;;;5.20;;
24008;SDS011;12217;50.792;4.372;2023-05-07T09:30:05;10.68;;;5.68;;
24008;SDS011;12217;50.792;4.372;2023-05-07T09:32:35;10.30;;;5.68;;
24008;SDS011;12217;50.792;4.372;2023-05-07T09:35:03;9.32;;;5.50;;
24008;SDS011;12217;50.792;4.372;2023-05-07T09:37:30;8.73;;;5.97;;
24008;SDS011;12217;50.792;4.372;2023-05-07T09:39:57;10.13;;;4.95;;
24008;SDS011;12217;50.792;4.372;2023-05-07T09:42:23;8.70;;;5.10;;
24008;SDS011;12217;50.792;4.372;2023-05-07T09:44:54;7.32;;;3.95;;
24008;SDS011;12217;50.792;4.372;2023-05-07T09:47:20;6.93;;;4.20;;
24008;SDS011;12217;50.792;4.372;2023-05-07T09:49:48;7.95;;;4.95;;
24008;SDS011;12217;50.792;4.372;2023-05-07T09:52:14;8.95;;;4.75;;
24008;SDS011;12217;50.792;4.372;2023-05-07T09:54:41;6.95;;;4.93;;
24008;SDS011;12217;50.792;4.372;2023-05-07T09:57:09;7.50;;;5.10;;
24008;SDS011;12217;50.792;4.372;2023-05-07T09:59:37;9.23;;;5.38;;
24008;SDS011;12217;50.792;4.372;2023-05-07T10:02:04;10.88;;;5.30;;
24008;SDS011;12217;50.792;4.372;2023-05-07T10:04:31;7.22;;;5.10;;
24008;SDS011;12217;50.792;4.372;2023-05-07T10:06:57;8.65;;;5.25;;
24008;SDS011;12217;50.792;4.372;2023-05-07T10:09:23;6.25;;;5.05;;
24008;SDS011;12217;50.792;4.372;2023-05-07T10:11:51;6.72;;;5.25;;
24008;SDS011;12217;50.792;4.372;2023-05-07T10:14:19;7.43;;;4.95;;
24008;SDS011;12217;50.792;4.372;2023-05-07T10:16:46;7.35;;;4.88;;
24008;SDS011;12217;50.792;4.372;2023-05-07T10:19:13;9.27;;;4.65;;
24008;SDS011;12217;50.792;4.372;2023-05-07T10:21:42;7.22;;;5.10;;
24008;SDS011;12217;50.792;4.372;2023-05-07T10:24:19;8.63;;;5.20;;
24008;SDS011;12217;50.792;4.372;2023-05-07T10:26:50;7.18;;;5.20;;
24008;SDS011;12217;50.792;4.372;2023-05-07T10:34:40;8.57;;;5.50;;
24008;SDS011;12217;50.792;4.372;2023-05-07T10:37:10;6.57;;;5.10;;
24008;SDS011;12217;50.792;4.372;2023-05-07T10:39:37;6.13;;;4.35;;
24008;SDS011;12217;50.792;4.372;2023-05-07T10:42:09;7.68;;;4.47;;
24008;SDS011;12217;50.792;4.372;2023-05-07T10:44:36;6.25;;;3.60;;
24008;SDS011;12217;50.792;4.372;2023-05-07T10:47:03;4.97;;;3.45;;
24008;SDS011;12217;50.792;4.372;2023-05-07T10:49:34;5.57;;;3.03;;
24008;SDS011;12217;50.792;4.372;2023-05-07T10:52:21;4.65;;;3.20;;
24008;SDS011;12217;50.792;4.372;2023-05-07T10:57:42;5.18;;;3.10;;
24008;SDS011;12217;50.792;4.372;2023-05-07T11:05:27;3.88;;;2.72;;
24008;SDS011;12217;50.792;4.372;2023-05-07T11:08:00;5.72;;;2.60;;
24008;SDS011;12217;50.792;4.372;2023-05-07T11:13:15;4.10;;;2.67;;
24008;SDS011;12217;50.792;4.372;2023-05-07T11:15:42;3.50;;;2.53;;
24008;SDS011;12217;50.792;4.372;2023-05-07T11:18:15;5.30;;;3.00;;
24008;SDS011;12217;50.792;4.372;2023-05-07T11:26:02;5.45;;;3.05;;
24008;SDS011;12217;50.792;4.372;2023-05-07T11:28:41;4.85;;;3.05;;
24008;SDS011;12217;50.792;4.372;2023-05-07T11:31:09;5.35;;;3.20;;
24008;SDS011;12217;50.792;4.372;2023-05-07T11:33:36;5.13;;;3.35;;
24008;SDS011;12217;50.792;4.372;2023-05-07T11:36:02;5.45;;;3.22;;
24008;SDS011;12217;50.792;4.372;2023-05-07T11:38:35;5.50;;;3.63;;
24008;SDS011;12217;50.792;4.372;2023-05-07T11:41:02;4.80;;;3.10;;
24008;SDS011;12217;50.792;4.372;2023-05-07T11:43:30;7.60;;;3.55;;
24008;SDS011;12217;50.792;4.372;2023-05-07T11:46:04;5.80;;;3.22;;
24008;SDS011;12217;50.792;4.372;2023-05-07T11:48:32;5.15;;;3.40;;
24008;SDS011;12217;50.792;4.372;2023-05-07T11:53:27;3.88;;;3.00;;
24008;SDS011;12217;50.792;4.372;2023-05-07T11:56:00;7.18;;;3.50;;
24008;SDS011;12217;50.792;4.372;2023-05-07T11:58:25;3.53;;;3.22;;
24008;SDS011;12217;50.792;4.372;2023-05-07T12:00:52;4.05;;;3.03;;
24008;SDS011;12217;50.792;4.372;2023-05-07T12:03:18;5.80;;;3.60;;
24008;SDS011;12217;50.792;4.372;2023-05-07T12:05:44;5.40;;;3.45;;
24008;SDS011;12217;50.792;4.372;2023-05-07T12:08:13;6.30;;;4.00;;
24008;SDS011;12217;50.792;4.372;2023-05-07T12:10:43;7.13;;;3.83;;
24008;SDS011;12217;50.792;4.372;2023-05-07T12:13:14;5.03;;;3.58;;
24008;SDS011;12217;50.792;4.372;2023-05-07T12:15:43;4.32;;;3.25;;
24008;SDS011;12217;50.792;4.372;2023-05-07T12:18:10;5.57;;;3.58;;
24008;SDS011;12217;50.792;4.372;2023-05-07T12:20:36;5.43;;;3.97;;
24008;SDS011;12217;50.792;4.372;2023-05-07T12:23:02;5.30;;;3.60;;
24008;SDS011;12217;50.792;4.372;2023-05-07T12:25:35;6.40;;;3.80;;
24008;SDS011;12217;50.792;4.372;2023-05-07T12:28:01;5.53;;;4.53;;
24008;SDS011;12217;50.792;4.372;2023-05-07T12:30:30;7.65;;;4.20;;
24008;SDS011;12217;50.792;4.372;2023-05-07T12:32:56;5.82;;;3.70;;
24008;SDS011;12217;50.792;4.372;2023-05-07T12:35:26;6.75;;;4.60;;
24008;SDS011;12217;50.792;4.372;2023-05-07T12:37:55;5.70;;;4.20;;
24008;SDS011;12217;50.792;4.372;2023-05-07T12:42:59;6.10;;;5.50;;
24008;SDS011;12217;50.792;4.372;2023-05-07T12:45:25;6.15;;;5.50;;
24008;SDS011;12217;50.792;4.372;2023-05-07T12:47:51;7.10;;;6.40;;
24008;SDS011;12217;50.792;4.372;2023-05-07T12:50:17;8.63;;;7.80;;
24008;SDS011;12217;50.792;4.372;2023-05-07T12:52:52;8.80;;;7.90;;
24008;SDS011;12217;50.792;4.372;2023-05-07T12:55:19;9.73;;;8.93;;
24008;SDS011;12217;50.792;4.372;2023-05-07T12:57:48;10.90;;;9.88;;
24008;SDS011;12217;50.792;4.372;2023-05-07T13:00:15;13.75;;;10.68;;
24008;SDS011;12217;50.792;4.372;2023-05-07T13:02:42;10.90;;;9.93;;
24008;SDS011;12217;50.792;4.372;2023-05-07T13:05:11;11.40;;;10.38;;
24008;SDS011;12217;50.792;4.372;2023-05-07T13:07:37;12.20;;;11.10;;
24008;SDS011;12217;50.792;4.372;2023-05-07T13:10:03;11.93;;;10.77;;
24008;SDS011;12217;50.792;4.372;2023-05-07T13:12:29;12.88;;;11.73;;
24008;SDS011;12217;50.792;4.372;2023-05-07T13:14:55;13.70;;;12.50;;
24008;SDS011;12217;50.792;4.372;2023-05-07T13:17:20;12.60;;;11.18;;
24008;SDS011;12217;50.792;4.372;2023-05-07T13:19:46;11.90;;;10.82;;
24008;SDS011;12217;50.792;4.372;2023-05-07T13:22:12;13.80;;;12.60;;
24008;SDS011;12217;50.792;4.372;2023-05-07T13:24:37;14.15;;;12.75;;
24008;SDS011;12217;50.792;4.372;2023-05-07T13:27:03;14.27;;;12.82;;
24008;SDS011;12217;50.792;4.372;2023-05-07T13:29:29;14.60;;;12.77;;
24008;SDS011;12217;50.792;4.372;2023-05-07T13:31:58;15.65;;;14.05;;
24008;SDS011;12217;50.792;4.372;2023-05-07T13:34:24;16.33;;;13.70;;
24008;SDS011;12217;50.792;4.372;2023-05-07T13:36:50;14.90;;;13.30;;
24008;SDS011;12217;50.792;4.372;2023-05-07T13:39:16;14.43;;;13.02;;
24008;SDS011;12217;50.792;4.372;2023-05-07T13:41:42;14.48;;;13.02;;
24008;SDS011;12217;50.792;4.372;2023-05-07T13:44:07;12.57;;;11.27;;
24008;SDS011;12217;50.792;4.372;2023-05-07T13:46:33;12.65;;;11.35;;
24008;SDS011;12217;50.792;4.372;2023-05-07T13:48:59;12.93;;;11.63;;
24008;SDS011;12217;50.792;4.372;2023-05-07T13:51:24;12.82;;;11.52;;
24008;SDS011;12217;50.792;4.372;2023-05-07T13:53:50;13.27;;;11.98;;
24008;SDS011;12217;50.792;4.372;2023-05-07T13:56:17;13.73;;;12.38;;
24008;SDS011;12217;50.792;4.372;2023-05-07T13:58:43;12.30;;;10.88;;
24008;SDS011;12217;50.792;4.372;2023-05-07T14:01:08;13.50;;;12.10;;
24008;SDS011;12217;50.792;4.372;2023-05-07T14:03:34;15.07;;;13.57;;
24008;SDS011;12217;50.792;4.372;2023-05-07T14:06:02;14.18;;;12.38;;
24008;SDS011;12217;50.792;4.372;2023-05-07T14:08:28;13.18;;;11.85;;
24008;SDS011;12217;50.792;4.372;2023-05-07T14:10:54;12.98;;;11.52;;
24008;SDS011;12217;50.792;4.372;2023-05-07T14:13:20;13.52;;;12.15;;
24008;SDS011;12217;50.792;4.372;2023-05-07T14:15:46;13.10;;;11.85;;
24008;SDS011;12217;50.792;4.372;2023-05-07T14:18:13;13.55;;;12.15;;
24008;SDS011;12217;50.792;4.372;2023-05-07T14:20:39;12.52;;;11.23;;
24008;SDS011;12217;50.792;4.372;2023-05-07T14:23:05;13.20;;;11.80;;
24008;SDS011;12217;50.792;4.372;2023-05-07T14:25:31;13.38;;;11.85;;
24008;SDS011;12217;50.792;4.372;2023-05-07T14:27:57;14.13;;;12.73;;
24008;SDS011;12217;50.792;4.372;2023-05-07T14:30:22;13.88;;;11.98;;
24008;SDS011;12217;50.792;4.372;2023-05-07T14:32:49;12.00;;;10.90;;
24008;SDS011;12217;50.792;4.372;2023-05-07T14:35:15;14.30;;;11.52;;
24008;SDS011;12217;50.792;4.372;2023-05-07T14:37:41;11.45;;;10.35;;
24008;SDS011;12217;50.792;4.372;2023-05-07T14:40:07;11.10;;;10.10;;
24008;SDS011;12217;50.792;4.372;2023-05-07T14:42:34;10.93;;;9.88;;
24008;SDS011;12217;50.792;4.372;2023-05-07T14:44:59;10.73;;;9.80;;
24008;SDS011;12217;50.792;4.372;2023-05-07T14:47:25;10.45;;;9.38;;
24008;SDS011;12217;50.792;4.372;2023-05-07T14:49:50;10.40;;;9.30;;
24008;SDS011;12217;50.792;4.372;2023-05-07T14:52:18;11.23;;;10.13;;
24008;SDS011;12217;50.792;4.372;2023-05-07T14:54:43;10.98;;;9.98;;
24008;SDS011;12217;50.792;4.372;2023-05-07T14:57:10;12.43;;;10.10;;
24008;SDS011;12217;50.792;4.372;2023-05-07T14:59:41;11.20;;;10.20;;
24008;SDS011;12217;50.792;4.372;2023-05-07T15:02:07;11.70;;;10.52;;
24008;SDS011;12217;50.792;4.372;2023-05-07T15:04:34;11.18;;;10.13;;